createdAt,value
2022-07-29T00:01:43.645Z,19.10
2022-07-29T00:04:14.410Z,19.00
2022-07-29T00:06:43.533Z,19.00
2022-07-29T00:09:11.813Z,19.00
2022-07-29T00:11:40.059Z,19.00
2022-07-29T00:14:08.458Z,18.90
2022-07-29T00:16:37.014Z,18.90
2022-07-29T00:19:05.734Z,18.80
2022-07-29T00:21:37.946Z,18.80
2022-07-29T00:24:06.461Z,18.80
2022-07-29T00:26:34.939Z,18.90
2022-07-29T00:29:32.926Z,18.90
2022-07-29T00:31:53.316Z,18.80
2022-07-29T00:34:39.293Z,18.70
2022-07-29T00:37:08.896Z,18.70
2022-07-29T00:39:37.473Z,18.60
2022-07-29T00:42:06.446Z,18.60
2022-07-29T00:44:39.130Z,18.60
2022-07-29T00:47:07.966Z,18.60
2022-07-29T00:49:36.675Z,18.60
2022-07-29T00:52:05.656Z,18.50
2022-07-29T00:54:35.705Z,18.50
2022-07-29T00:57:08.518Z,18.50
2022-07-29T00:59:37.416Z,18.50
2022-07-29T01:02:06.048Z,18.30
2022-07-29T01:04:34.944Z,18.20
2022-07-29T01:07:04.264Z,18.20
2022-07-29T01:09:45.390Z,18.10
2022-07-29T01:12:17.416Z,18.10
2022-07-29T01:14:46.532Z,18.10
2022-07-29T01:17:20.296Z,18.00
2022-07-29T01:19:55.101Z,18.00
2022-07-29T01:22:43.236Z,18.00
2022-07-29T01:25:26.324Z,18.00
2022-07-29T01:28:52.420Z,17.90
2022-07-29T01:31:28.114Z,17.90
2022-07-29T01:34:04.906Z,17.90
2022-07-29T01:36:44.037Z,17.90
2022-07-29T01:39:16.404Z,17.90
2022-07-29T01:41:52.930Z,17.80
2022-07-29T01:44:29.117Z,17.80
2022-07-29T01:47:02.667Z,17.70
2022-07-29T01:49:37.189Z,17.70
2022-07-29T01:52:11.148Z,17.70
2022-07-29T01:54:46.534Z,17.60
2022-07-29T01:57:19.419Z,17.60
2022-07-29T01:59:51.036Z,17.60
2022-07-29T02:02:21.988Z,17.50
2022-07-29T02:04:51.976Z,17.50
2022-07-29T02:07:23.171Z,17.40
2022-07-29T02:09:53.197Z,17.40
2022-07-29T02:12:22.700Z,17.30
2022-07-29T02:14:53.685Z,17.30
2022-07-29T02:17:27.173Z,17.30
2022-07-29T02:20:01.159Z,17.30
2022-07-29T02:22:31.640Z,17.30
2022-07-29T02:25:01.469Z,17.30
2022-07-29T02:27:44.199Z,17.30
2022-07-29T02:30:14.090Z,17.30
2022-07-29T02:32:45.504Z,17.20
2022-07-29T02:35:17.117Z,17.20
2022-07-29T02:38:06.951Z,17.00
2022-07-29T02:40:36.786Z,17.10
2022-07-29T02:43:07.905Z,17.10
2022-07-29T02:45:36.515Z,17.10
2022-07-29T02:48:11.038Z,17.00
2022-07-29T02:50:46.845Z,17.10
2022-07-29T02:53:20.038Z,17.00
2022-07-29T02:55:52.330Z,16.90
2022-07-29T02:58:32.305Z,16.80
2022-07-29T03:01:04.076Z,16.80
2022-07-29T03:03:40.490Z,16.70
2022-07-29T03:06:10.667Z,16.70
2022-07-29T03:09:01.354Z,16.70
2022-07-29T03:11:40.135Z,16.70
2022-07-29T03:14:21.058Z,16.70
2022-07-29T03:16:50.601Z,16.70
2022-07-29T03:19:21.543Z,16.80
2022-07-29T03:21:50.189Z,16.80
2022-07-29T03:24:32.295Z,16.80
2022-07-29T03:27:01.122Z,16.80
2022-07-29T03:29:33.781Z,16.80
2022-07-29T03:32:04.398Z,16.80
2022-07-29T03:34:41.524Z,16.70
2022-07-29T03:37:09.961Z,16.70
2022-07-29T03:39:42.835Z,16.70
2022-07-29T03:42:15.066Z,16.60
2022-07-29T03:44:45.455Z,16.60
2022-07-29T03:47:16.678Z,16.50
2022-07-29T03:49:50.263Z,16.50
2022-07-29T03:52:19.268Z,16.50
2022-07-29T03:54:47.760Z,16.40
2022-07-29T03:57:18.224Z,16.40
2022-07-29T03:59:47.577Z,16.40
2022-07-29T04:02:21.505Z,16.30
2022-07-29T04:04:52.584Z,16.30
2022-07-29T04:07:21.474Z,16.30
2022-07-29T04:09:49.625Z,16.20
2022-07-29T04:12:18.405Z,16.30
2022-07-29T04:17:42.474Z,16.20
2022-07-29T04:20:14.233Z,16.20
2022-07-29T04:22:42.689Z,16.20
2022-07-29T04:25:11.451Z,16.30
2022-07-29T04:28:00.150Z,16.30
2022-07-29T04:30:29.279Z,16.30
2022-07-29T04:32:59.405Z,16.20
2022-07-29T04:35:29.218Z,16.20
2022-07-29T04:37:58.401Z,16.30
2022-07-29T04:40:26.553Z,16.30
2022-07-29T04:42:54.968Z,16.40
2022-07-29T04:45:23.859Z,16.60
2022-07-29T04:47:52.069Z,16.80
2022-07-29T04:50:20.532Z,17.00
2022-07-29T04:52:50.277Z,17.30
2022-07-29T04:55:18.472Z,17.60
2022-07-29T04:57:46.844Z,17.80
2022-07-29T05:00:15.908Z,18.00
2022-07-29T05:02:44.300Z,18.30
2022-07-29T05:05:12.761Z,18.50
2022-07-29T05:07:43.897Z,18.80
2022-07-29T05:10:13.879Z,19.00
2022-07-29T05:12:42.033Z,19.20
2022-07-29T05:15:11.869Z,19.40
2022-07-29T05:17:40.129Z,19.60
2022-07-29T05:20:10.021Z,19.70
2022-07-29T05:22:38.685Z,19.80
2022-07-29T05:25:09.301Z,19.90
2022-07-29T05:27:39.428Z,20.10
2022-07-29T05:30:08.887Z,20.30
2022-07-29T05:32:37.158Z,20.40
2022-07-29T05:35:05.995Z,20.50
2022-07-29T05:37:36.873Z,20.70
2022-07-29T05:40:07.180Z,20.70
2022-07-29T05:42:35.755Z,20.50
2022-07-29T05:45:06.440Z,20.50
2022-07-29T05:47:35.265Z,20.70
2022-07-29T05:50:03.469Z,20.70
2022-07-29T05:52:31.694Z,20.90
2022-07-29T05:55:00.395Z,21.00
2022-07-29T05:57:28.747Z,21.20
2022-07-29T05:59:56.938Z,21.40
2022-07-29T06:02:26.966Z,21.50
2022-07-29T06:04:55.514Z,21.70
2022-07-29T06:07:23.688Z,21.80
2022-07-29T06:09:52.065Z,21.90
2022-07-29T06:12:20.798Z,22.10
2022-07-29T06:14:53.931Z,22.30
2022-07-29T06:17:22.535Z,22.50
2022-07-29T06:19:52.170Z,22.60
2022-07-29T06:22:20.490Z,22.90
2022-07-29T06:24:48.833Z,23.20
2022-07-29T06:27:17.348Z,23.30
2022-07-29T06:29:45.645Z,23.20
2022-07-29T06:32:15.634Z,23.20
2022-07-29T06:34:43.918Z,23.10
2022-07-29T06:37:18.789Z,23.10
2022-07-29T06:39:47.471Z,23.20
2022-07-29T06:42:15.676Z,23.30
2022-07-29T06:44:44.311Z,23.50
2022-07-29T06:47:12.442Z,23.70
2022-07-29T06:49:40.882Z,23.70
2022-07-29T06:52:09.324Z,23.70
2022-07-29T06:54:39.870Z,23.70
2022-07-29T06:57:08.268Z,24.10
2022-07-29T06:59:36.868Z,24.40
2022-07-29T07:02:05.125Z,24.30
2022-07-29T07:04:34.412Z,24.60
2022-07-29T07:07:03.077Z,24.90
2022-07-29T07:09:40.111Z,25.10
2022-07-29T07:12:11.093Z,25.00
2022-07-29T07:14:40.999Z,24.80
2022-07-29T07:17:09.420Z,24.90
2022-07-29T07:19:38.134Z,25.20
2022-07-29T07:22:06.660Z,25.40
2022-07-29T07:24:34.890Z,25.70
2022-07-29T07:27:03.214Z,25.80
2022-07-29T07:29:32.955Z,26.20
2022-07-29T07:32:01.583Z,26.90
2022-07-29T07:34:31.346Z,27.40
2022-07-29T07:36:59.968Z,27.70
2022-07-29T07:39:28.339Z,27.90
2022-07-29T07:41:56.771Z,28.10
2022-07-29T07:44:24.886Z,28.30
2022-07-29T07:46:54.848Z,28.40
2022-07-29T07:49:23.611Z,28.90
2022-07-29T07:51:51.762Z,29.10
2022-07-29T07:54:20.355Z,29.30
2022-07-29T07:56:53.259Z,29.30
2022-07-29T07:59:21.685Z,29.50
2022-07-29T08:01:55.184Z,29.80
2022-07-29T08:04:28.513Z,29.90
2022-07-29T08:06:58.196Z,29.90
2022-07-29T08:09:29.880Z,29.80
2022-07-29T08:11:59.930Z,30.10
2022-07-29T08:14:28.089Z,30.40
2022-07-29T08:16:56.613Z,30.40
2022-07-29T08:19:26.283Z,30.50
2022-07-29T08:21:55.236Z,30.50
2022-07-29T08:24:41.712Z,30.40
2022-07-29T08:27:33.485Z,30.50
2022-07-29T08:29:58.603Z,30.70
2022-07-29T08:32:52.019Z,31.00
2022-07-29T08:35:16.549Z,31.40
2022-07-29T08:37:44.774Z,31.50
2022-07-29T08:40:13.623Z,31.80
2022-07-29T08:42:42.353Z,31.60
2022-07-29T08:45:11.811Z,31.60
2022-07-29T08:47:41.536Z,31.60
2022-07-29T08:50:10.776Z,31.80
2022-07-29T08:52:41.997Z,31.60
2022-07-29T08:55:12.161Z,31.50
2022-07-29T08:57:49.626Z,31.70
2022-07-29T09:00:24.419Z,31.90
2022-07-29T09:02:59.749Z,31.90
2022-07-29T09:05:29.330Z,32.10
2022-07-29T09:07:59.401Z,32.30
2022-07-29T09:10:27.709Z,32.40
2022-07-29T09:12:57.502Z,32.50
2022-07-29T09:15:25.944Z,32.50
2022-07-29T09:17:54.052Z,32.70
2022-07-29T09:20:24.284Z,33.00
2022-07-29T09:22:54.402Z,32.90
2022-07-29T09:25:37.348Z,32.90
2022-07-29T09:28:09.891Z,32.50
2022-07-29T09:30:41.387Z,32.60
2022-07-29T09:33:09.514Z,32.10
2022-07-29T09:35:37.647Z,32.00
2022-07-29T09:38:13.754Z,31.80
2022-07-29T09:40:43.382Z,31.60
2022-07-29T09:43:15.762Z,31.70
2022-07-29T09:45:44.047Z,31.80
2022-07-29T09:48:20.071Z,31.80
2022-07-29T09:50:50.683Z,31.90
2022-07-29T09:53:33.667Z,31.60
2022-07-29T09:56:03.518Z,31.70
2022-07-29T09:58:31.771Z,31.70
2022-07-29T10:01:00.465Z,31.60
2022-07-29T10:03:28.702Z,31.70
2022-07-29T10:06:08.994Z,31.60
2022-07-29T10:08:37.537Z,31.40
2022-07-29T10:11:15.341Z,31.30
2022-07-29T10:13:45.455Z,30.80
2022-07-29T10:16:15.146Z,30.20
2022-07-29T10:18:44.920Z,30.40
2022-07-29T10:21:22.577Z,30.90
2022-07-29T10:24:02.353Z,31.50
2022-07-29T10:26:32.599Z,32.00
2022-07-29T10:29:01.135Z,32.50
2022-07-29T10:31:38.919Z,32.90
2022-07-29T10:34:15.874Z,32.90
2022-07-29T10:36:57.124Z,33.10
2022-07-29T10:39:44.408Z,33.20
2022-07-29T10:42:33.629Z,33.20
2022-07-29T10:45:09.442Z,33.70
2022-07-29T10:47:37.719Z,33.50
2022-07-29T10:50:11.636Z,33.00
2022-07-29T10:53:08.969Z,33.50
2022-07-29T10:55:43.359Z,33.70
2022-07-29T10:58:19.147Z,33.50
2022-07-29T11:00:49.342Z,32.30
2022-07-29T11:03:49.185Z,31.80
2022-07-29T11:09:34.843Z,31.20
2022-07-29T11:12:26.817Z,31.00
2022-07-29T11:15:01.630Z,30.80
2022-07-29T11:17:37.572Z,30.60
2022-07-29T11:20:37.958Z,30.20
2022-07-29T11:23:21.161Z,30.20
2022-07-29T11:26:18.852Z,30.20
2022-07-29T11:29:04.718Z,30.00
2022-07-29T11:31:39.771Z,29.90
2022-07-29T11:34:23.262Z,29.90
2022-07-29T11:37:20.102Z,30.10
2022-07-29T11:40:21.356Z,30.10
2022-07-29T11:42:52.903Z,30.30
2022-07-29T11:45:41.397Z,30.40
2022-07-29T11:48:31.705Z,30.50
2022-07-29T11:51:03.089Z,30.60
2022-07-29T11:53:32.809Z,30.90
2022-07-29T11:56:03.407Z,31.10
2022-07-29T11:58:33.353Z,31.40
2022-07-29T12:01:04.801Z,31.40
2022-07-29T12:03:36.840Z,31.70
2022-07-29T12:06:17.470Z,32.00
2022-07-29T12:08:47.574Z,32.40
2022-07-29T12:11:21.774Z,32.70
2022-07-29T12:13:51.376Z,32.90
2022-07-29T12:16:29.216Z,33.20
2022-07-29T12:19:04.068Z,33.20
2022-07-29T12:21:45.729Z,33.40
2022-07-29T12:24:22.998Z,33.70
2022-07-29T12:26:56.901Z,33.50
2022-07-29T12:29:33.952Z,33.80
2022-07-29T12:32:14.259Z,34.00
2022-07-29T12:34:45.196Z,34.10
2022-07-29T12:37:13.859Z,34.20
2022-07-29T12:39:42.347Z,34.20
2022-07-29T12:42:18.801Z,33.80
2022-07-29T12:44:48.650Z,33.40
2022-07-29T12:47:17.784Z,33.20
2022-07-29T12:49:47.979Z,33.30
2022-07-29T12:52:30.480Z,33.40
2022-07-29T12:54:59.036Z,33.50
2022-07-29T12:57:27.567Z,33.90
2022-07-29T13:00:05.470Z,33.60
2022-07-29T13:02:33.892Z,33.30
2022-07-29T13:05:05.150Z,32.80
2022-07-29T13:07:54.581Z,32.50
2022-07-29T13:10:25.079Z,32.70
2022-07-29T13:13:09.228Z,32.80
2022-07-29T13:15:38.015Z,33.30
2022-07-29T13:18:07.178Z,33.60
2022-07-29T13:20:37.469Z,33.90
2022-07-29T13:23:05.985Z,33.80
2022-07-29T13:25:35.381Z,33.80
2022-07-29T13:28:04.158Z,34.00
2022-07-29T13:30:32.309Z,33.80
2022-07-29T13:33:00.637Z,33.80
2022-07-29T13:35:30.948Z,33.50
2022-07-29T13:38:00.975Z,33.20
2022-07-29T13:40:30.153Z,32.80
2022-07-29T13:42:58.529Z,32.30
2022-07-29T13:45:29.306Z,31.90
2022-07-29T13:47:57.760Z,32.00
2022-07-29T13:50:26.161Z,32.00
2022-07-29T13:52:54.532Z,32.00
2022-07-29T13:55:24.859Z,31.80
2022-07-29T13:57:53.279Z,31.60
2022-07-29T14:00:21.728Z,31.30
2022-07-29T14:02:50.047Z,31.00
2022-07-29T14:05:18.381Z,31.30
2022-07-29T14:07:46.540Z,31.40
2022-07-29T14:10:19.718Z,31.20
2022-07-29T14:12:50.071Z,31.10
2022-07-29T14:15:18.449Z,30.90
2022-07-29T14:17:46.635Z,30.40
2022-07-29T14:20:17.180Z,30.40
2022-07-29T14:22:45.841Z,30.50
2022-07-29T14:25:15.519Z,30.80
2022-07-29T14:27:44.839Z,31.00
2022-07-29T14:30:15.356Z,31.20
2022-07-29T14:32:43.783Z,31.60
2022-07-29T14:35:12.484Z,31.60
2022-07-29T14:37:41.332Z,31.50
2022-07-29T14:40:10.768Z,31.30
2022-07-29T14:42:39.414Z,31.20
2022-07-29T14:45:09.667Z,30.90
2022-07-29T14:47:39.926Z,30.70
2022-07-29T14:50:09.277Z,30.80
2022-07-29T14:52:37.353Z,31.10
2022-07-29T14:55:16.445Z,31.00
2022-07-29T14:57:48.692Z,31.00
2022-07-29T15:00:17.368Z,31.20
2022-07-29T15:03:01.566Z,31.30
2022-07-29T15:05:31.154Z,31.20
2022-07-29T15:07:59.789Z,31.10
2022-07-29T15:10:28.345Z,30.80
2022-07-29T15:12:58.560Z,30.50
2022-07-29T15:15:27.301Z,30.20
2022-07-29T15:17:57.044Z,30.00
2022-07-29T15:20:26.466Z,30.10
2022-07-29T15:22:56.408Z,30.20
2022-07-29T15:25:25.293Z,30.30
2022-07-29T15:27:55.655Z,30.20
2022-07-29T15:30:33.894Z,30.50
2022-07-29T15:33:05.176Z,30.20
2022-07-29T15:35:33.601Z,30.50
2022-07-29T15:38:09.444Z,30.70
2022-07-29T15:40:39.857Z,30.90
2022-07-29T15:43:07.988Z,31.10
2022-07-29T15:45:40.998Z,31.20
2022-07-29T15:48:14.785Z,31.00
2022-07-29T15:50:47.146Z,31.20
2022-07-29T15:53:15.649Z,31.30
2022-07-29T15:55:44.513Z,31.20
2022-07-29T15:58:13.065Z,31.40
2022-07-29T16:00:41.427Z,31.50
2022-07-29T16:03:11.345Z,31.70
2022-07-29T16:05:39.979Z,31.70
2022-07-29T16:08:08.159Z,31.60
2022-07-29T16:10:39.266Z,31.50
2022-07-29T16:13:07.622Z,31.30
2022-07-29T16:15:35.832Z,31.20
2022-07-29T16:18:04.336Z,30.90
2022-07-29T16:20:34.541Z,30.60
2022-07-29T16:23:02.671Z,30.70
2022-07-29T16:25:57.605Z,30.60
2022-07-29T16:28:19.627Z,30.50
2022-07-29T16:30:47.884Z,30.20
2022-07-29T16:33:16.149Z,30.20
2022-07-29T16:35:46.165Z,30.10
2022-07-29T16:38:14.269Z,29.60
2022-07-29T16:40:42.500Z,29.40
2022-07-29T16:43:11.308Z,29.20
2022-07-29T16:45:46.481Z,28.90
2022-07-29T16:48:15.258Z,28.80
2022-07-29T16:50:47.976Z,28.60
2022-07-29T16:53:16.554Z,28.30
2022-07-29T16:55:44.689Z,28.10
2022-07-29T16:58:13.642Z,28.00
2022-07-29T17:00:42.406Z,27.90
2022-07-29T17:03:10.955Z,27.80
2022-07-29T17:05:52.594Z,27.60
2022-07-29T17:08:24.355Z,27.60
2022-07-29T17:10:52.834Z,27.50
2022-07-29T17:13:21.401Z,27.30
2022-07-29T17:15:50.185Z,27.20
2022-07-29T17:18:18.880Z,27.20
2022-07-29T17:20:47.125Z,27.20
2022-07-29T17:23:15.874Z,27.00
2022-07-29T17:25:45.663Z,26.90
2022-07-29T17:28:13.835Z,26.90
2022-07-29T17:30:42.286Z,26.80
2022-07-29T17:33:10.697Z,26.60
2022-07-29T17:35:56.521Z,26.40
2022-07-29T17:38:24.860Z,26.40
2022-07-29T17:40:54.862Z,26.40
2022-07-29T17:43:23.562Z,26.20
2022-07-29T17:45:56.816Z,26.30
2022-07-29T17:48:28.886Z,26.10
2022-07-29T17:50:58.045Z,25.80
2022-07-29T17:53:26.299Z,25.60
2022-07-29T17:55:58.191Z,25.40
2022-07-29T17:58:27.016Z,25.30
2022-07-29T18:00:55.593Z,25.30
2022-07-29T18:03:24.260Z,25.00
2022-07-29T18:05:52.483Z,24.90
2022-07-29T18:08:21.405Z,24.70
2022-07-29T18:10:49.861Z,24.60
2022-07-29T18:13:20.169Z,24.60
2022-07-29T18:15:49.043Z,24.40
2022-07-29T18:18:18.602Z,24.30
2022-07-29T18:20:47.257Z,24.20
2022-07-29T18:23:16.885Z,24.20
2022-07-29T18:25:45.309Z,24.10
2022-07-29T18:28:13.672Z,24.10
2022-07-29T18:30:43.628Z,23.90
2022-07-29T18:33:22.862Z,23.80
2022-07-29T18:36:06.083Z,23.80
2022-07-29T18:38:39.921Z,23.70
2022-07-29T18:41:08.361Z,23.50
2022-07-29T18:43:37.629Z,23.50
2022-07-29T18:46:07.702Z,23.40
2022-07-29T18:48:35.976Z,23.30
2022-07-29T18:51:09.449Z,23.30
2022-07-29T18:53:38.199Z,23.30
2022-07-29T18:56:06.883Z,23.10
2022-07-29T18:58:37.150Z,23.10
2022-07-29T19:01:07.791Z,23.00
2022-07-29T19:03:36.160Z,22.60
2022-07-29T19:06:04.435Z,22.60
2022-07-29T19:08:33.663Z,22.50
2022-07-29T19:11:01.822Z,22.40
2022-07-29T19:13:31.035Z,22.30
2022-07-29T19:15:59.809Z,22.20
2022-07-29T19:18:29.546Z,22.10
2022-07-29T19:20:57.810Z,22.00
2022-07-29T19:23:26.165Z,21.90
2022-07-29T19:25:54.475Z,21.70
2022-07-29T19:28:22.776Z,21.50
2022-07-29T19:30:51.367Z,21.30
2022-07-29T19:33:20.541Z,21.20
2022-07-29T19:35:54.558Z,21.10
2022-07-29T19:38:23.739Z,21.00
2022-07-29T19:40:53.383Z,20.90
2022-07-29T19:43:49.970Z,20.80
2022-07-29T19:46:10.065Z,20.70
2022-07-29T19:48:38.299Z,20.70
2022-07-29T19:51:08.024Z,20.60
2022-07-29T19:53:36.294Z,20.50
2022-07-29T19:56:04.811Z,20.40
2022-07-29T19:58:33.794Z,20.20
2022-07-29T20:01:03.177Z,20.30
2022-07-29T20:03:39.827Z,20.10
2022-07-29T20:06:10.263Z,20.10
2022-07-29T20:08:38.532Z,20.00
2022-07-29T20:11:07.105Z,20.00
2022-07-29T20:13:36.128Z,19.90
2022-07-29T20:16:06.527Z,19.90
2022-07-29T20:18:34.881Z,19.80
2022-07-29T20:21:04.900Z,19.80
2022-07-29T20:23:34.990Z,19.80
2022-07-29T20:26:06.116Z,19.70
2022-07-29T20:28:37.539Z,19.70
2022-07-29T20:31:05.755Z,19.60
2022-07-29T20:33:33.937Z,19.50
2022-07-29T20:36:02.684Z,19.50
2022-07-29T20:38:30.884Z,19.50
2022-07-29T20:41:00.680Z,19.40
2022-07-29T20:43:29.012Z,19.30
2022-07-29T20:45:57.250Z,19.30
2022-07-29T20:48:25.522Z,19.30
2022-07-29T20:50:55.326Z,19.30
2022-07-29T20:53:24.270Z,19.20
2022-07-29T20:55:53.002Z,19.10
2022-07-29T20:58:23.444Z,19.00
2022-07-29T21:00:51.731Z,19.00
2022-07-29T21:03:20.007Z,18.90
2022-07-29T21:05:48.499Z,18.90
2022-07-29T21:08:16.644Z,18.90
2022-07-29T21:10:45.802Z,18.90
2022-07-29T21:13:15.893Z,18.90
2022-07-29T21:15:49.252Z,18.90
2022-07-29T21:18:27.520Z,18.90
2022-07-29T21:20:56.014Z,18.90
2022-07-29T21:23:24.447Z,18.90
2022-07-29T21:25:53.116Z,19.00
2022-07-29T21:28:37.042Z,19.00
2022-07-29T21:31:07.735Z,19.00
2022-07-29T21:33:36.509Z,19.00
2022-07-29T21:36:27.084Z,19.00
2022-07-29T21:38:55.904Z,19.00
2022-07-29T21:41:24.363Z,19.00
2022-07-29T21:43:52.707Z,19.00
2022-07-29T21:46:24.728Z,18.90
2022-07-29T21:48:53.019Z,18.90
2022-07-29T21:51:21.230Z,18.90
2022-07-29T21:53:53.045Z,18.80
2022-07-29T21:56:22.568Z,18.80
2022-07-29T21:58:56.329Z,18.80
2022-07-29T22:01:26.225Z,18.70
2022-07-29T22:03:54.539Z,18.60
2022-07-29T22:06:23.490Z,18.60
2022-07-29T22:08:52.034Z,18.60
2022-07-29T22:11:20.610Z,18.50
2022-07-29T22:13:49.004Z,18.50
2022-07-29T22:16:17.725Z,18.40
2022-07-29T22:18:48.396Z,18.40
2022-07-29T22:21:17.103Z,18.30
2022-07-29T22:23:45.343Z,18.30
2022-07-29T22:26:14.069Z,18.30
2022-07-29T22:28:42.457Z,18.30
2022-07-29T22:31:10.840Z,18.20
2022-07-29T22:33:39.158Z,18.20
2022-07-29T22:36:09.725Z,18.20
2022-07-29T22:38:37.883Z,18.10
2022-07-29T22:41:06.140Z,18.10
2022-07-29T22:43:34.792Z,18.10
2022-07-29T22:46:03.129Z,18.00
2022-07-29T22:48:31.380Z,18.00
2022-07-29T22:51:00.169Z,18.00
2022-07-29T22:53:29.882Z,17.90
2022-07-29T22:55:58.074Z,17.90
2022-07-29T22:58:26.772Z,17.90
2022-07-29T23:00:55.124Z,17.80
2022-07-29T23:03:24.291Z,17.80
2022-07-29T23:05:52.866Z,17.70
2022-07-29T23:08:21.644Z,17.70
2022-07-29T23:10:51.302Z,17.70
2022-07-29T23:13:19.573Z,17.60
2022-07-29T23:15:48.413Z,17.50
2022-07-29T23:18:17.423Z,17.50
2022-07-29T23:20:46.074Z,17.50
2022-07-29T23:23:14.436Z,17.40
2022-07-29T23:25:43.120Z,17.40
2022-07-29T23:28:13.265Z,17.40
2022-07-29T23:30:43.367Z,17.40
2022-07-29T23:33:11.847Z,17.30
2022-07-29T23:35:40.260Z,17.30
2022-07-29T23:38:08.495Z,17.30
2022-07-29T23:40:36.976Z,17.20
2022-07-29T23:43:08.857Z,17.20
2022-07-29T23:45:44.631Z,17.10
2022-07-29T23:48:14.753Z,17.10
2022-07-29T23:50:43.140Z,17.10
2022-07-29T23:53:12.225Z,17.00
2022-07-29T23:55:40.850Z,17.00
2022-07-29T23:58:09.420Z,16.90
